createdAt,value
2022-09-18T00:03:46.902Z,17.28
2022-09-18T00:07:43.846Z,17.92
2022-09-18T00:11:49.421Z,17.71
2022-09-18T00:15:57.338Z,17.77
2022-09-18T00:19:54.463Z,17.59
2022-09-18T00:23:55.492Z,17.16
2022-09-18T00:27:52.504Z,17.48
2022-09-18T00:31:49.603Z,17.43
2022-09-18T00:35:47.099Z,17.00
2022-09-18T00:39:44.041Z,17.90
2022-09-18T00:43:41.899Z,17.15
2022-09-18T00:47:51.357Z,17.24
2022-09-18T00:51:52.754Z,16.90
2022-09-18T00:55:49.758Z,16.77
2022-09-18T00:59:49.785Z,16.98
2022-09-18T01:03:46.752Z,17.38
2022-09-18T01:08:08.815Z,16.75
2022-09-18T01:12:41.016Z,16.88
2022-09-18T01:17:19.612Z,16.60
2022-09-18T01:21:25.090Z,16.37
2022-09-18T01:25:51.938Z,16.52
2022-09-18T01:30:06.002Z,17.23
2022-09-18T01:34:21.038Z,16.66
2022-09-18T01:38:33.591Z,17.16
2022-09-18T01:42:34.489Z,16.62
2022-09-18T01:46:32.946Z,17.26
2022-09-18T01:50:38.279Z,17.14
2022-09-18T01:54:43.481Z,17.01
2022-09-18T01:58:40.752Z,17.12
2022-09-18T02:02:59.430Z,16.69
2022-09-18T02:07:24.429Z,16.77
2022-09-18T02:11:23.820Z,17.49
2022-09-18T02:15:27.335Z,17.12
2022-09-18T02:19:46.623Z,17.35
2022-09-18T02:23:44.526Z,17.39
2022-09-18T02:27:42.760Z,17.51
2022-09-18T02:31:40.992Z,17.85
2022-09-18T02:35:50.459Z,17.61
2022-09-18T02:40:30.581Z,17.46
2022-09-18T02:44:53.714Z,17.67
2022-09-18T02:49:05.693Z,17.93
2022-09-18T02:53:12.343Z,17.33
2022-09-18T02:57:24.432Z,17.16
2022-09-18T03:01:26.849Z,17.28
2022-09-18T03:05:26.164Z,17.09
2022-09-18T03:09:27.737Z,17.33
2022-09-18T03:13:24.778Z,16.90
2022-09-18T03:17:21.776Z,16.88
2022-09-18T03:21:18.745Z,17.12
2022-09-18T03:25:16.563Z,16.65
2022-09-18T03:29:14.657Z,16.85
2022-09-18T03:33:13.196Z,17.48
2022-09-18T03:37:12.600Z,17.31
2022-09-18T03:41:10.071Z,17.36
2022-09-18T03:45:12.546Z,17.70
2022-09-18T03:49:09.681Z,17.09
2022-09-18T03:53:09.155Z,16.86
2022-09-18T03:57:17.681Z,17.49
2022-09-18T04:01:43.892Z,17.08
2022-09-18T04:06:02.696Z,16.80
2022-09-18T04:10:19.189Z,17.11
2022-09-18T04:14:16.154Z,17.32
2022-09-18T04:18:13.189Z,17.30
2022-09-18T04:22:10.561Z,17.00
2022-09-18T04:26:10.465Z,17.22
2022-09-18T04:30:15.870Z,17.28
2022-09-18T04:34:16.014Z,17.16
2022-09-18T04:38:13.746Z,17.23
2022-09-18T04:42:11.085Z,17.46
2022-09-18T04:46:09.747Z,17.59
2022-09-18T04:50:08.970Z,17.52
2022-09-18T04:54:06.203Z,17.32
2022-09-18T04:58:07.139Z,17.74
2022-09-18T05:02:04.414Z,17.86
2022-09-18T05:06:01.916Z,17.81
2022-09-18T05:10:01.141Z,16.85
2022-09-18T05:14:01.009Z,17.24
2022-09-18T05:18:11.356Z,17.50
2022-09-18T05:22:08.767Z,16.58
2022-09-18T05:26:10.077Z,16.88
2022-09-18T05:30:08.690Z,16.68
2022-09-18T05:34:25.949Z,16.54
2022-09-18T05:38:24.509Z,16.81
2022-09-18T05:42:23.157Z,16.45
2022-09-18T05:46:20.642Z,17.08
2022-09-18T05:50:31.817Z,17.15
2022-09-18T05:54:29.809Z,17.16
2022-09-18T05:58:28.308Z,16.85
2022-09-18T06:02:26.734Z,17.09
2022-09-18T06:06:32.566Z,17.01
2022-09-18T06:10:30.233Z,17.17
2022-09-18T06:14:27.334Z,17.49
2022-09-18T06:18:24.899Z,17.19
2022-09-18T06:22:24.461Z,17.08
2022-09-18T06:26:21.606Z,17.56
2022-09-18T06:30:18.587Z,17.42
2022-09-18T06:34:15.539Z,17.14
2022-09-18T06:38:15.646Z,17.66
2022-09-18T06:42:17.549Z,18.10
2022-09-18T06:46:31.902Z,17.68
2022-09-18T06:50:38.100Z,17.62
2022-09-18T06:54:35.104Z,17.72
2022-09-18T06:58:32.933Z,17.68
2022-09-18T07:02:30.181Z,17.66
2022-09-18T07:06:32.386Z,17.95
2022-09-18T07:10:29.903Z,17.97
2022-09-18T07:14:29.685Z,17.98
2022-09-18T07:18:34.129Z,17.74
2022-09-18T07:22:31.919Z,17.51
2022-09-18T07:26:29.019Z,17.25
2022-09-18T07:30:26.578Z,17.87
2022-09-18T07:34:25.013Z,18.13
2022-09-18T07:38:23.690Z,17.81
2022-09-18T07:42:24.261Z,17.43
2022-09-18T07:46:23.277Z,17.38
2022-09-18T07:50:23.478Z,17.56
2022-09-18T07:54:20.555Z,17.67
2022-09-18T07:58:30.896Z,17.59
2022-09-18T08:02:36.263Z,17.88
2022-09-18T08:06:33.581Z,17.91
2022-09-18T08:10:51.427Z,17.90
2022-09-18T08:15:07.923Z,17.44
2022-09-18T08:19:15.598Z,17.60
2022-09-18T08:23:20.111Z,17.30
2022-09-18T08:27:17.182Z,17.33
2022-09-18T08:31:16.017Z,17.27
2022-09-18T08:35:13.826Z,17.53
2022-09-18T08:39:10.878Z,17.25
2022-09-18T08:43:47.431Z,17.77
2022-09-18T08:48:06.531Z,17.37
2022-09-18T08:52:23.412Z,17.68
2022-09-18T08:56:44.189Z,17.70
2022-09-18T09:00:55.023Z,17.77
2022-09-18T09:05:19.368Z,17.88
2022-09-18T09:10:17.449Z,18.10
2022-09-18T09:15:03.701Z,18.19
2022-09-18T09:19:37.569Z,18.76
2022-09-18T09:24:01.676Z,18.07
2022-09-18T09:28:43.715Z,18.12
2022-09-18T09:32:55.696Z,17.76
2022-09-18T09:37:25.199Z,18.29
2022-09-18T09:41:58.162Z,18.03
2022-09-18T09:46:03.155Z,17.98
2022-09-18T09:50:09.377Z,18.61
2022-09-18T09:54:11.918Z,18.67
2022-09-18T09:58:44.425Z,18.59
2022-09-18T10:03:02.561Z,18.09
2022-09-18T10:07:23.429Z,18.00
2022-09-18T10:11:24.261Z,18.83
2022-09-18T10:15:45.958Z,17.37
2022-09-18T10:19:49.873Z,17.39
2022-09-18T10:24:11.753Z,17.76
2022-09-18T10:28:18.297Z,17.92
2022-09-18T10:32:43.535Z,17.60
2022-09-18T10:36:52.409Z,17.79
2022-09-18T10:40:49.481Z,18.39
2022-09-18T10:45:01.442Z,18.15
2022-09-18T10:49:20.656Z,18.78
2022-09-18T10:53:42.452Z,19.16
2022-09-18T10:57:54.867Z,18.67
2022-09-18T11:01:59.297Z,18.52
2022-09-18T11:06:04.788Z,19.38
2022-09-18T11:10:08.800Z,19.10
2022-09-18T11:14:26.168Z,19.57
2022-09-18T11:18:32.031Z,19.36
2022-09-18T11:22:44.695Z,19.07
2022-09-18T11:27:21.884Z,20.33
2022-09-18T11:31:21.985Z,20.86
2022-09-18T11:35:29.756Z,20.92
2022-09-18T11:39:36.581Z,21.05
2022-09-18T11:43:39.752Z,20.96
2022-09-18T11:47:47.441Z,20.41
2022-09-18T11:51:59.611Z,20.86
2022-09-18T11:56:39.587Z,21.11
2022-09-18T12:00:51.420Z,20.84
2022-09-18T12:04:59.005Z,20.24
2022-09-18T12:09:13.638Z,20.48
2022-09-18T12:13:45.392Z,21.16
2022-09-18T12:18:00.742Z,21.30
2022-09-18T12:22:09.841Z,21.19
2022-09-18T12:26:37.563Z,20.30
2022-09-18T12:31:10.671Z,19.75
2022-09-18T12:35:27.330Z,20.61
2022-09-18T12:40:00.018Z,19.62
2022-09-18T12:45:14.253Z,19.88
2022-09-18T12:49:42.835Z,19.14
2022-09-18T12:54:13.605Z,18.77
2022-09-18T12:58:52.395Z,18.71
2022-09-18T13:03:11.881Z,19.35
2022-09-18T13:07:37.471Z,19.38
2022-09-18T13:11:46.421Z,18.97
2022-09-18T13:15:52.212Z,18.93
2022-09-18T13:20:30.994Z,18.93
2022-09-18T13:24:35.696Z,19.10
2022-09-18T13:28:33.553Z,19.15
2022-09-18T13:32:37.386Z,19.39
2022-09-18T13:36:46.758Z,19.17
2022-09-18T13:40:58.201Z,18.76
2022-09-18T13:45:21.439Z,19.08
2022-09-18T13:49:56.258Z,18.82
2022-09-18T13:54:25.582Z,19.21
2022-09-18T13:58:31.903Z,18.80
2022-09-18T14:02:40.324Z,18.83
2022-09-18T14:06:37.200Z,19.04
2022-09-18T14:11:05.440Z,18.91
2022-09-18T14:15:25.150Z,19.18
2022-09-18T14:19:32.956Z,19.03
2022-09-18T14:23:36.046Z,18.88
2022-09-18T14:28:03.344Z,18.81
2022-09-18T14:32:02.649Z,18.69
2022-09-18T14:36:07.315Z,18.66
2022-09-18T14:40:21.026Z,18.40
2022-09-18T14:44:18.243Z,18.14
2022-09-18T14:48:30.606Z,19.22
2022-09-18T14:52:47.950Z,18.80
2022-09-18T14:56:45.008Z,19.20
2022-09-18T15:00:44.029Z,19.16
2022-09-18T15:04:42.570Z,18.55
2022-09-18T15:08:43.040Z,18.78
2022-09-18T15:12:43.557Z,18.76
2022-09-18T15:16:40.614Z,18.50
2022-09-18T15:20:37.725Z,18.64
2022-09-18T15:24:34.752Z,17.89
2022-09-18T15:28:36.277Z,18.69
2022-09-18T15:32:44.412Z,18.32
2022-09-18T15:36:41.702Z,18.59
2022-09-18T15:40:39.593Z,18.43
2022-09-18T15:44:39.318Z,18.02
2022-09-18T15:48:38.993Z,18.18
2022-09-18T15:52:43.169Z,18.13
2022-09-18T15:56:50.962Z,18.04
2022-09-18T16:00:58.635Z,17.82
2022-09-18T16:04:56.440Z,17.28
2022-09-18T16:08:57.507Z,16.87
2022-09-18T16:12:54.545Z,17.11
2022-09-18T16:16:51.686Z,17.39
2022-09-18T16:20:51.821Z,17.30
2022-09-18T16:24:49.735Z,17.37
2022-09-18T16:28:58.644Z,17.18
2022-09-18T16:33:23.660Z,17.41
2022-09-18T16:37:22.973Z,17.14
2022-09-18T16:41:20.326Z,17.13
2022-09-18T16:45:18.930Z,17.09
2022-09-18T16:49:32.609Z,17.01
2022-09-18T16:53:29.608Z,17.01
2022-09-18T16:57:27.780Z,16.98
2022-09-18T17:01:25.469Z,17.04
2022-09-18T17:05:24.731Z,16.93
2022-09-18T17:09:23.905Z,16.93
2022-09-18T17:13:21.267Z,17.13
2022-09-18T17:17:18.790Z,17.46
2022-09-18T17:21:16.198Z,17.09
2022-09-18T17:25:14.477Z,17.53
2022-09-18T17:29:11.762Z,17.32
2022-09-18T17:33:09.657Z,17.53
2022-09-18T17:37:06.633Z,17.29
2022-09-18T17:41:08.262Z,16.61
2022-09-18T17:45:06.296Z,16.98
2022-09-18T17:49:03.447Z,16.67
2022-09-18T17:53:00.684Z,16.84
2022-09-18T17:57:00.152Z,17.36
2022-09-18T18:00:59.513Z,17.29
2022-09-18T18:04:56.818Z,17.04
2022-09-18T18:08:55.538Z,17.68
2022-09-18T18:12:52.732Z,17.60
2022-09-18T18:16:52.585Z,17.19
2022-09-18T18:20:51.960Z,17.25
2022-09-18T18:24:49.706Z,17.33
2022-09-18T18:28:46.653Z,17.21
2022-09-18T18:32:43.618Z,17.61
2022-09-18T18:36:42.914Z,17.46
2022-09-18T18:40:40.504Z,17.33
2022-09-18T18:44:39.533Z,17.31
2022-09-18T18:48:37.668Z,17.45
2022-09-18T18:52:34.627Z,17.36
2022-09-18T18:56:37.592Z,17.01
2022-09-18T19:00:37.520Z,16.86
2022-09-18T19:04:34.785Z,17.15
2022-09-18T19:08:32.164Z,17.03
2022-09-18T19:12:29.107Z,17.17
2022-09-18T19:16:29.165Z,16.66
2022-09-18T19:20:26.498Z,16.62
2022-09-18T19:24:23.541Z,16.68
2022-09-18T19:28:20.492Z,16.52
2022-09-18T19:32:18.953Z,16.91
2022-09-18T19:36:15.953Z,16.98
2022-09-18T19:40:14.096Z,16.84
2022-09-18T19:44:37.359Z,16.75
2022-09-18T19:48:34.760Z,16.99
2022-09-18T19:52:32.302Z,16.81
2022-09-18T19:56:42.510Z,17.04
2022-09-18T20:00:42.165Z,17.01
2022-09-18T20:04:40.921Z,16.69
2022-09-18T20:08:38.106Z,17.15
2022-09-18T20:12:39.669Z,16.91
2022-09-18T20:16:39.172Z,16.92
2022-09-18T20:20:37.600Z,16.96
2022-09-18T20:24:34.586Z,16.63
2022-09-18T20:28:33.775Z,16.93
2022-09-18T20:32:31.033Z,16.52
2022-09-18T20:36:28.745Z,16.55
2022-09-18T20:40:25.867Z,16.50
2022-09-18T20:44:22.875Z,16.46
2022-09-18T20:48:27.252Z,16.57
2022-09-18T20:52:26.698Z,16.71
2022-09-18T20:56:26.992Z,16.48
2022-09-18T21:00:24.523Z,16.20
2022-09-18T21:04:21.559Z,15.93
2022-09-18T21:08:18.538Z,16.26
2022-09-18T21:12:15.849Z,16.09
2022-09-18T21:16:14.856Z,16.08
2022-09-18T21:20:13.570Z,15.69
2022-09-18T21:24:11.015Z,16.09
2022-09-18T21:28:08.217Z,16.02
2022-09-18T21:32:08.773Z,15.89
2022-09-18T21:36:06.851Z,15.87
2022-09-18T21:40:04.337Z,15.78
2022-09-18T21:44:04.172Z,15.76
2022-09-18T21:48:01.166Z,15.88
2022-09-18T21:52:02.778Z,16.14
2022-09-18T21:56:06.817Z,15.68
2022-09-18T22:00:08.986Z,15.42
2022-09-18T22:04:09.959Z,15.67
2022-09-18T22:08:08.332Z,15.63
2022-09-18T22:12:07.827Z,15.67
2022-09-18T22:16:05.798Z,15.56
2022-09-18T22:20:03.090Z,15.50
2022-09-18T22:24:10.217Z,15.57
2022-09-18T22:28:07.397Z,15.54
2022-09-18T22:32:04.883Z,15.95
2022-09-18T22:36:06.899Z,15.52
2022-09-18T22:40:04.511Z,15.46
2022-09-18T22:44:01.804Z,15.41
2022-09-18T22:47:58.793Z,15.74
2022-09-18T22:51:55.759Z,15.75
2022-09-18T22:55:52.813Z,15.47
2022-09-18T22:59:49.806Z,15.71
2022-09-18T23:03:50.518Z,15.49
2022-09-18T23:07:47.597Z,15.61
2022-09-18T23:11:48.231Z,15.41
2022-09-18T23:15:45.145Z,15.18
2022-09-18T23:19:42.186Z,15.47
2022-09-18T23:23:48.505Z,15.48
2022-09-18T23:27:45.498Z,15.25
2022-09-18T23:31:45.649Z,15.24
2022-09-18T23:35:42.989Z,15.17
2022-09-18T23:39:40.003Z,15.21
2022-09-18T23:43:38.084Z,15.44
2022-09-18T23:47:37.418Z,15.18
2022-09-18T23:51:38.456Z,14.81
2022-09-18T23:55:35.393Z,14.65
2022-09-18T23:59:34.875Z,14.77
